Time;durP1;ratioP1;P1;durP2;ratioP2;P2;SDS_P1;SDS_P2;PMS_P1;PMS_P2;Temp;Humidity;BMP_temperature;BMP_pressure;BME280_temperature;BME280_humidity;BME280_pressure;Samples;Min_cycle;Max_cycle;Signal;HPM_P1;HPM_P2
2023/04/10 00:02:23;;;;;;;;;5.00;5.00;;;;;;;;5015379;29;8845;-65
2023/04/10 00:04:54;;;;;;;;;3.00;3.00;;;;;;;;5048358;29;8887;-65
2023/04/10 00:07:26;;;;;;;;;5.00;5.00;;;;;;;;5031099;29;8796;-65
2023/04/10 00:09:57;;;;;;;;;1.00;1.00;;;;;;;;5016163;29;8883;-65
2023/04/10 00:12:28;;;;;;;;;3.00;3.00;;;;;;;;5030885;29;8828;-65
2023/04/10 00:14:59;;;;;;;;;1.20;1.20;;;;;;;;5030943;29;9566;-65
2023/04/10 00:17:30;;;;;;;;;1.40;1.40;;;;;;;;5014397;29;8948;-65
2023/04/10 00:20:02;;;;;;;;;2.60;2.60;;;;;;;;5031010;29;8816;-65
2023/04/10 00:22:34;;;;;;;;;1.00;1.00;;;;;;;;5015781;29;8824;-65
2023/04/10 00:25:23;;;;;;;;;4.60;4.60;;;;;;;;5033514;29;9524;-65
2023/04/10 00:27:54;;;;;;;;;1.40;1.40;;;;;;;;5030996;29;8804;-65
2023/04/10 00:30:25;;;;;;;;;2.00;2.00;;;;;;;;5000265;29;8857;-65
2023/04/10 00:32:56;;;;;;;;;1.75;1.75;;;;;;;;5046987;29;11743;-65
2023/04/10 00:35:27;;;;;;;;;2.00;2.00;;;;;;;;5015273;29;9184;-65
2023/04/10 00:37:58;;;;;;;;;1.80;1.80;;;;;;;;5030765;29;8827;-65
2023/04/10 00:40:30;;;;;;;;;2.80;2.80;;;;;;;;5015551;29;8824;-65
2023/04/10 00:43:01;;;;;;;;;2.00;2.00;;;;;;;;5029438;29;8836;-66
2023/04/10 00:45:34;;;;;;;;;2.20;2.20;;;;;;;;5015631;29;8816;-65
2023/04/10 00:48:06;;;;;;;;;2.80;2.80;;;;;;;;5015106;29;8816;-65
2023/04/10 00:50:37;;;;;;;;;2.20;2.20;;;;;;;;5030087;29;8936;-65
2023/04/10 00:53:08;;;;;;;;;2.00;2.00;;;;;;;;5015291;29;8942;-65
2023/04/10 00:55:39;;;;;;;;;5.60;5.60;;;;;;;;5032006;29;8852;-65
2023/04/10 00:58:13;;;;;;;;;2.20;2.20;;;;;;;;5066355;29;8925;-65
2023/04/10 01:00:46;;;;;;;;;3.20;3.20;;;;;;;;5066011;29;8806;-65
2023/04/10 01:03:18;;;;;;;;;0.80;0.80;;;;;;;;5034205;29;8816;-65
2023/04/10 01:06:02;;;;;;;;;1.40;1.40;;;;;;;;5018980;29;8795;-65
2023/04/10 01:08:55;;;;;;;;;6.80;6.80;;;;;;;;5066177;29;8794;-65
2023/04/10 01:11:44;;;;;;;;;5.80;5.40;;;;;;;;5048929;29;8802;-65
2023/04/10 01:14:18;;;;;;;;;17.60;16.80;;;;;;;;5047396;29;9581;-67
2023/04/10 01:16:52;;;;;;;;;30.60;27.80;;;;;;;;5033466;29;8881;-66
2023/04/10 01:19:59;;;;;;;;;38.40;36.20;;;;;;;;5061301;29;8895;-67
2023/04/10 01:22:35;;;;;;;;;10.00;10.00;;;;;;;;5031923;29;8820;-67
2023/04/10 01:25:16;;;;;;;;;2.80;2.80;;;;;;;;5014753;29;8792;-66
2023/04/10 01:28:03;;;;;;;;;1.00;1.00;;;;;;;;5045127;29;8804;-66
2023/04/10 01:30:35;;;;;;;;;5.20;5.20;;;;;;;;5041174;29;8790;-67
2023/04/10 01:33:11;;;;;;;;;5.40;5.40;;;;;;;;5048841;29;8798;-67
2023/04/10 01:35:46;;;;;;;;;6.40;6.40;;;;;;;;5048872;29;8818;-67
2023/04/10 01:38:18;;;;;;;;;8.00;7.60;;;;;;;;5048531;29;8857;-67
2023/04/10 01:40:52;;;;;;;;;6.80;6.80;;;;;;;;5033588;29;8936;-67
2023/04/10 01:43:31;;;;;;;;;5.60;5.60;;;;;;;;5033251;29;9541;-67
2023/04/10 01:46:04;;;;;;;;;8.20;8.20;;;;;;;;5055177;29;8803;-67
2023/04/10 01:48:36;;;;;;;;;5.00;5.00;;;;;;;;5067046;29;8827;-67
2023/04/10 01:51:08;;;;;;;;;5.00;5.00;;;;;;;;5048378;29;8802;-67
2023/04/10 01:53:40;;;;;;;;;7.60;7.60;;;;;;;;5048545;29;8836;-67
2023/04/10 01:56:12;;;;;;;;;18.00;17.60;;;;;;;;5048202;29;8842;-67
2023/04/10 01:58:48;;;;;;;;;13.00;13.00;;;;;;;;5048714;29;8798;-67
2023/04/10 02:01:19;;;;;;;;;17.50;17.50;;;;;;;;5032426;29;8801;-66
2023/04/10 02:03:51;;;;;;;;;16.00;16.00;;;;;;;;5032728;29;9366;-67
2023/04/10 02:06:41;;;;;;;;;15.20;15.20;;;;;;;;5065238;29;8794;-67
2023/04/10 02:09:19;;;;;;;;;20.60;19.00;;;;;;;;5048128;29;8851;-67
2023/04/10 02:12:16;;;;;;;;;18.00;18.00;;;;;;;;5048232;29;8778;-67
2023/04/10 02:14:48;;;;;;;;;11.20;11.20;;;;;;;;5023442;29;8839;-67
2023/04/10 02:17:22;;;;;;;;;25.40;20.40;;;;;;;;5029224;29;8808;-67
2023/04/10 02:19:56;;;;;;;;;18.80;18.80;;;;;;;;5046024;29;8843;-67
2023/04/10 02:22:27;;;;;;;;;83.50;64.00;;;;;;;;5036021;29;8829;-67
2023/04/10 02:24:59;;;;;;;;;30.60;30.60;;;;;;;;5048158;29;8953;-67
2023/04/10 02:27:31;;;;;;;;;24.80;23.20;;;;;;;;5048115;29;8857;-67
2023/04/10 02:30:03;;;;;;;;;12.00;12.00;;;;;;;;5064507;29;8810;-67
2023/04/10 02:32:35;;;;;;;;;10.00;10.00;;;;;;;;5064366;29;8853;-67
2023/04/10 02:35:25;;;;;;;;;18.20;18.20;;;;;;;;5065053;29;8856;-67
2023/04/10 02:37:56;;;;;;;;;11.00;11.00;;;;;;;;5032927;29;9522;-67
2023/04/10 02:40:27;;;;;;;;;6.00;6.00;;;;;;;;5035329;29;8873;-66
2023/04/10 02:43:16;;;;;;;;;6.00;5.80;;;;;;;;5068713;29;8820;-66
2023/04/10 02:45:47;;;;;;;;;11.00;11.00;;;;;;;;5057199;29;9511;-66
2023/04/10 02:48:25;;;;;;;;;7.60;6.80;;;;;;;;5060205;29;8813;-66
2023/04/10 02:51:01;;;;;;;;;6.00;5.80;;;;;;;;5035912;29;9490;-67
2023/04/10 02:53:33;;;;;;;;;5.00;5.00;;;;;;;;5035498;29;8790;-67
2023/04/10 02:56:06;;;;;;;;;8.60;8.60;;;;;;;;5034779;29;8873;-68
2023/04/10 02:58:38;;;;;;;;;16.60;16.60;;;;;;;;5029521;29;8848;-68
2023/04/10 03:01:09;;;;;;;;;32.80;31.00;;;;;;;;5034105;29;9017;-68
2023/04/10 03:03:46;;;;;;;;;36.00;34.60;;;;;;;;5034952;29;9579;-68
2023/04/10 03:06:26;;;;;;;;;21.20;20.40;;;;;;;;5035173;29;9739;-67
2023/04/10 03:08:58;;;;;;;;;16.00;15.80;;;;;;;;5050394;29;8801;-67
2023/04/10 03:11:31;;;;;;;;;4.60;4.60;;;;;;;;5034178;29;8837;-67
2023/04/10 03:14:02;;;;;;;;;25.80;25.80;;;;;;;;5049616;29;8829;-67
2023/04/10 03:16:33;;;;;;;;;8.60;8.60;;;;;;;;5050421;29;8837;-66
2023/04/10 03:19:07;;;;;;;;;8.40;8.40;;;;;;;;5050171;29;8923;-67
2023/04/10 03:21:57;;;;;;;;;13.00;13.00;;;;;;;;5052926;29;8789;-68
2023/04/10 03:24:29;;;;;;;;;9.40;9.40;;;;;;;;5066710;29;8802;-67
2023/04/10 03:27:01;;;;;;;;;10.20;10.20;;;;;;;;5049603;29;8790;-67
2023/04/10 03:29:32;;;;;;;;;7.80;7.80;;;;;;;;5050194;29;8790;-68
2023/04/10 03:32:04;;;;;;;;;11.60;11.60;;;;;;;;5033913;29;9577;-67
2023/04/10 03:34:37;;;;;;;;;1.00;1.00;;;;;;;;5067543;29;8821;-67
2023/04/10 03:37:08;;;;;;;;;3.25;3.25;;;;;;;;5035499;29;8793;-67
2023/04/10 03:39:39;;;;;;;;;9.40;9.00;;;;;;;;5050205;29;12198;-66
2023/04/10 03:42:11;;;;;;;;;1.20;1.20;;;;;;;;5035381;29;8873;-67
2023/04/10 03:44:44;;;;;;;;;0.00;0.00;;;;;;;;5019964;29;8894;-67
2023/04/10 03:47:16;;;;;;;;;1.40;1.40;;;;;;;;5067715;29;9534;-74
2023/04/10 03:50:08;;;;;;;;;0.00;0.00;;;;;;;;5037858;29;8810;-74
2023/04/10 03:52:50;;;;;;;;;1.00;1.00;;;;;;;;5021425;29;8824;-74
2023/04/10 03:55:25;;;;;;;;;0.00;0.00;;;;;;;;5035866;29;8814;-74
2023/04/10 03:57:59;;;;;;;;;0.40;0.40;;;;;;;;5000953;29;8856;-74
2023/04/10 04:00:32;;;;;;;;;2.40;2.40;;;;;;;;5000518;29;8923;-75
2023/04/10 04:03:18;;;;;;;;;1.00;1.00;;;;;;;;5031558;29;8839;-74
2023/04/10 04:06:06;;;;;;;;;2.20;2.20;;;;;;;;5014383;29;8819;-75
2023/04/10 04:08:46;;;;;;;;;2.00;2.00;;;;;;;;5022212;29;8835;-74
2023/04/10 04:11:24;;;;;;;;;0.00;0.00;;;;;;;;5032296;29;8809;-74
2023/04/10 04:14:21;;;;;;;;;0.00;0.00;;;;;;;;5001935;29;8856;-75
2023/04/10 04:17:08;;;;;;;;;0.00;0.00;;;;;;;;5033215;29;8836;-74
2023/04/10 04:20:00;;;;;;;;;0.00;0.00;;;;;;;;5018271;29;8823;-74
2023/04/10 04:23:06;;;;;;;;;0.00;0.00;;;;;;;;5019779;29;8840;-74
2023/04/10 04:26:03;;;;;;;;;0.00;0.00;;;;;;;;5015815;29;8833;-74
2023/04/10 04:28:56;;;;;;;;;0.00;0.00;;;;;;;;5016954;29;8837;-75
2023/04/10 04:31:54;;;;;;;;;0.20;0.20;;;;;;;;5012146;29;9658;-74
2023/04/10 04:34:44;;;;;;;;;0.00;0.00;;;;;;;;5031363;29;8840;-74
2023/04/10 04:37:50;;;;;;;;;0.00;0.00;;;;;;;;4998777;29;8951;-75
2023/04/10 04:40:44;;;;;;;;;0.00;0.00;;;;;;;;5003078;29;8816;-74
2023/04/10 04:43:48;;;;;;;;;0.00;0.00;;;;;;;;5006830;29;8856;-75
2023/04/10 04:46:32;;;;;;;;;0.00;0.00;;;;;;;;5033136;29;8805;-77
2023/04/10 04:49:25;;;;;;;;;0.00;0.00;;;;;;;;5017922;29;8895;-73
2023/04/10 04:52:17;;;;;;;;;0.00;0.00;;;;;;;;5017791;29;8804;-74
2023/04/10 04:55:07;;;;;;;;;1.00;1.00;;;;;;;;5002305;29;8986;-67
2023/04/10 04:57:58;;;;;;;;;0.00;0.00;;;;;;;;5018944;29;8856;-74
2023/04/10 05:00:53;;;;;;;;;0.00;0.00;;;;;;;;4995221;29;8912;-75
2023/04/10 05:03:43;;;;;;;;;1.00;1.00;;;;;;;;5015127;29;8832;-68
2023/04/10 05:06:30;;;;;;;;;0.00;0.00;;;;;;;;5013096;29;8834;-68
2023/04/10 05:09:20;;;;;;;;;0.00;0.00;;;;;;;;5045277;29;8846;-67
2023/04/10 05:12:20;;;;;;;;;0.00;0.00;;;;;;;;5019861;29;8840;-68
2023/04/10 05:15:27;;;;;;;;;0.00;0.00;;;;;;;;5028523;29;9580;-68
2023/04/10 05:18:22;;;;;;;;;0.00;0.00;;;;;;;;5030808;29;8828;-69
2023/04/10 05:21:02;;;;;;;;;0.00;0.00;;;;;;;;5027897;29;9627;-69
2023/04/10 05:23:52;;;;;;;;;3.00;3.00;;;;;;;;5044581;29;8970;-69
2023/04/10 05:26:34;;;;;;;;;2.00;2.00;;;;;;;;5012804;29;9576;-69
2023/04/10 05:29:24;;;;;;;;;0.00;0.00;;;;;;;;5000239;29;8832;-69
2023/04/10 05:32:34;;;;;;;;;0.20;0.20;;;;;;;;4969675;29;8832;-69
2023/04/10 05:35:24;;;;;;;;;0.00;0.00;;;;;;;;4985074;29;8975;-69
2023/04/10 05:38:21;;;;;;;;;0.00;0.00;;;;;;;;5035226;29;8874;-70
2023/04/10 05:41:10;;;;;;;;;0.00;0.00;;;;;;;;5037167;29;8806;-70
2023/04/10 05:44:01;;;;;;;;;5.80;5.80;;;;;;;;5012510;29;8827;-70
2023/04/10 05:47:11;;;;;;;;;0.80;0.80;;;;;;;;4999491;29;8961;-70
2023/04/10 05:50:09;;;;;;;;;4.20;4.20;;;;;;;;4983152;29;8826;-69
2023/04/10 05:53:01;;;;;;;;;0.00;0.00;;;;;;;;5023998;29;8831;-69
2023/04/10 05:55:51;;;;;;;;;1.00;0.00;;;;;;;;5013915;29;8865;-70
2023/04/10 05:58:41;;;;;;;;;0.00;0.00;;;;;;;;5029203;29;8810;-68
2023/04/10 06:01:15;;;;;;;;;0.00;0.00;;;;;;;;5014373;29;8803;-68
2023/04/10 06:04:03;;;;;;;;;0.00;0.00;;;;;;;;5046393;29;8982;-68
2023/04/10 06:06:35;;;;;;;;;0.20;0.00;;;;;;;;5013854;29;8837;-68
2023/04/10 06:09:24;;;;;;;;;0.00;0.00;;;;;;;;5045871;29;8933;-68
2023/04/10 06:11:55;;;;;;;;;0.00;0.00;;;;;;;;4998588;29;8823;-68
2023/04/10 06:14:27;;;;;;;;;0.00;0.00;;;;;;;;5011688;29;9571;-68
2023/04/10 06:17:01;;;;;;;;;0.00;0.00;;;;;;;;5014262;29;9599;-69
2023/04/10 06:19:32;;;;;;;;;0.00;0.00;;;;;;;;5028242;29;9535;-69
2023/04/10 06:22:03;;;;;;;;;8.75;8.75;;;;;;;;5013798;29;8783;-68
2023/04/10 06:24:34;;;;;;;;;0.80;0.80;;;;;;;;5029301;29;9584;-68
2023/04/10 06:27:05;;;;;;;;;6.00;6.00;;;;;;;;5013555;29;8830;-69
2023/04/10 06:29:36;;;;;;;;;0.00;0.00;;;;;;;;4998703;29;8833;-68
2023/04/10 06:32:25;;;;;;;;;2.00;2.00;;;;;;;;5026404;29;8947;-68
2023/04/10 06:34:56;;;;;;;;;0.00;0.00;;;;;;;;5025804;29;9564;-69
2023/04/10 06:37:30;;;;;;;;;3.00;3.00;;;;;;;;5025343;29;8883;-68
2023/04/10 06:40:08;;;;;;;;;3.40;3.40;;;;;;;;5009693;29;8832;-69
2023/04/10 06:42:40;;;;;;;;;6.00;6.00;;;;;;;;5025064;29;8808;-69
2023/04/10 06:45:17;;;;;;;;;2.00;2.00;;;;;;;;5028789;29;8815;-69
2023/04/10 06:47:48;;;;;;;;;0.00;0.00;;;;;;;;5044915;29;8806;-69
2023/04/10 06:50:19;;;;;;;;;1.00;1.00;;;;;;;;5013675;29;8942;-69
2023/04/10 06:52:52;;;;;;;;;7.40;6.00;;;;;;;;5028803;29;8842;-70
2023/04/10 06:55:30;;;;;;;;;0.40;0.40;;;;;;;;5014884;29;8830;-70
2023/04/10 06:58:19;;;;;;;;;0.00;0.00;;;;;;;;5028974;29;8823;-69
2023/04/10 07:00:51;;;;;;;;;1.00;1.00;;;;;;;;5013639;29;8833;-69
2023/04/10 07:03:22;;;;;;;;;1.20;1.20;;;;;;;;5013201;29;8956;-69
2023/04/10 07:06:12;;;;;;;;;5.60;5.60;;;;;;;;5010000;29;8917;-69
2023/04/10 07:08:43;;;;;;;;;0.00;0.00;;;;;;;;5027907;29;8833;-69
2023/04/10 07:11:14;;;;;;;;;0.40;0.40;;;;;;;;5048264;29;8810;-69
2023/04/10 07:13:45;;;;;;;;;18.75;18.25;;;;;;;;5047685;29;8809;-69
2023/04/10 07:16:16;;;;;;;;;0.00;0.00;;;;;;;;5032040;29;11577;-69
2023/04/10 07:18:47;;;;;;;;;9.00;9.00;;;;;;;;5032505;29;8998;-70
2023/04/10 07:21:19;;;;;;;;;30.40;29.40;;;;;;;;5045384;29;11455;-70
2023/04/10 07:23:50;;;;;;;;;4.00;4.00;;;;;;;;5012235;29;8834;-70
2023/04/10 07:26:40;;;;;;;;;1.60;1.60;;;;;;;;5017638;29;8830;-71
2023/04/10 07:29:11;;;;;;;;;4.20;4.20;;;;;;;;5031393;29;8846;-70
2023/04/10 07:31:42;;;;;;;;;31.00;26.00;;;;;;;;5013597;29;8830;-71
2023/04/10 07:34:13;;;;;;;;;1.00;1.00;;;;;;;;5015377;29;8804;-70
2023/04/10 07:37:02;;;;;;;;;0.20;0.20;;;;;;;;5046360;29;8834;-71
2023/04/10 07:39:33;;;;;;;;;0.00;0.00;;;;;;;;5029520;29;8860;-71
2023/04/10 07:42:05;;;;;;;;;0.00;0.00;;;;;;;;5030228;29;8822;-71
2023/04/10 07:44:36;;;;;;;;;0.00;0.00;;;;;;;;5045991;29;11466;-70
2023/04/10 07:47:07;;;;;;;;;2.00;2.00;;;;;;;;4996421;29;8854;-72
2023/04/10 07:49:38;;;;;;;;;0.00;0.00;;;;;;;;5029687;29;9780;-72
2023/04/10 07:52:09;;;;;;;;;0.00;0.00;;;;;;;;5015766;29;8857;-72
2023/04/10 07:54:40;;;;;;;;;0.40;0.40;;;;;;;;4998732;29;8872;-71
2023/04/10 07:57:11;;;;;;;;;0.00;0.00;;;;;;;;5022473;29;8844;-71
2023/04/10 07:59:42;;;;;;;;;0.00;0.00;;;;;;;;5026101;29;8825;-72
2023/04/10 08:02:13;;;;;;;;;0.00;0.00;;;;;;;;5049649;29;8829;-72
2023/04/10 08:05:02;;;;;;;;;0.00;0.00;;;;;;;;5067298;29;8822;-72
2023/04/10 08:07:35;;;;;;;;;0.00;0.00;;;;;;;;5049777;29;9498;-72
2023/04/10 08:10:06;;;;;;;;;0.80;0.80;;;;;;;;5033880;29;8909;-71
2023/04/10 08:12:37;;;;;;;;;0.00;0.00;;;;;;;;5050235;29;8869;-72
2023/04/10 08:15:08;;;;;;;;;0.00;0.00;;;;;;;;5034529;29;8829;-73
2023/04/10 08:17:40;;;;;;;;;2.00;2.00;;;;;;;;5050140;29;10277;-73
2023/04/10 08:20:11;;;;;;;;;6.40;6.40;;;;;;;;5049522;29;8865;-72
2023/04/10 08:22:42;;;;;;;;;0.60;0.60;;;;;;;;5016971;29;8833;-70
2023/04/10 08:25:14;;;;;;;;;0.00;0.00;;;;;;;;5065841;29;8833;-71
2023/04/10 08:27:45;;;;;;;;;3.60;3.60;;;;;;;;5032640;29;8825;-69
2023/04/10 08:30:15;;;;;;;;;0.00;0.00;;;;;;;;5049785;29;8842;-71
2023/04/10 08:32:46;;;;;;;;;0.00;0.00;;;;;;;;5048602;29;11541;-71
2023/04/10 08:35:17;;;;;;;;;0.00;0.00;;;;;;;;5034058;29;8849;-71
2023/04/10 08:37:48;;;;;;;;;0.00;0.00;;;;;;;;5049280;29;8798;-71
2023/04/10 08:40:19;;;;;;;;;0.00;0.00;;;;;;;;5048377;29;11553;-72
2023/04/10 08:42:50;;;;;;;;;0.00;0.00;;;;;;;;5049457;29;8921;-72
2023/04/10 08:45:21;;;;;;;;;0.25;0.25;;;;;;;;5065340;29;8829;-72
2023/04/10 08:47:55;;;;;;;;;3.00;3.00;;;;;;;;5066294;29;11709;-71
2023/04/10 08:50:27;;;;;;;;;0.60;0.60;;;;;;;;5052857;29;9674;-72
2023/04/10 08:53:03;;;;;;;;;2.00;2.00;;;;;;;;5076768;29;8844;-71
2023/04/10 08:55:34;;;;;;;;;0.00;0.00;;;;;;;;5066287;29;8833;-71
2023/04/10 08:58:06;;;;;;;;;1.00;1.00;;;;;;;;5048458;29;8869;-71
2023/04/10 09:00:37;;;;;;;;;0.00;0.00;;;;;;;;5066665;29;8849;-71
2023/04/10 09:03:10;;;;;;;;;0.00;0.00;;;;;;;;5049913;29;8838;-70
2023/04/10 09:05:41;;;;;;;;;1.00;1.00;;;;;;;;5049755;29;8863;-71
2023/04/10 09:08:13;;;;;;;;;0.00;0.00;;;;;;;;5065279;29;8822;-70
2023/04/10 09:10:44;;;;;;;;;0.40;0.40;;;;;;;;5049250;29;8809;-71
2023/04/10 09:13:37;;;;;;;;;0.80;0.80;;;;;;;;5052199;29;8877;-72
2023/04/10 09:16:29;;;;;;;;;18.00;15.40;;;;;;;;5065937;29;8850;-72
2023/04/10 09:19:01;;;;;;;;;2.00;2.00;;;;;;;;5048947;29;9486;-72
2023/04/10 09:21:50;;;;;;;;;1.00;1.00;;;;;;;;5049251;29;8801;-71
2023/04/10 09:24:24;;;;;;;;;7.00;7.00;;;;;;;;5065741;29;8812;-70
2023/04/10 09:26:55;;;;;;;;;1.40;1.40;;;;;;;;5065578;29;8829;-70
2023/04/10 09:29:49;;;;;;;;;1.40;1.40;;;;;;;;5065308;29;8809;-69
2023/04/10 09:32:38;;;;;;;;;0.00;0.00;;;;;;;;5033049;29;8813;-69
2023/04/10 09:35:12;;;;;;;;;0.00;0.00;;;;;;;;5048714;29;9575;-70
2023/04/10 09:37:44;;;;;;;;;0.20;0.20;;;;;;;;5065572;29;8814;-69
2023/04/10 09:40:19;;;;;;;;;1.00;1.00;;;;;;;;5065468;29;8834;-69
2023/04/10 09:42:50;;;;;;;;;5.60;5.60;;;;;;;;5033232;29;8810;-69
2023/04/10 09:45:21;;;;;;;;;5.60;5.60;;;;;;;;5065736;29;8810;-69
2023/04/10 09:48:00;;;;;;;;;0.00;0.00;;;;;;;;5064975;29;8818;-69
2023/04/10 09:50:35;;;;;;;;;0.00;0.00;;;;;;;;5048589;29;8814;-69
2023/04/10 09:53:13;;;;;;;;;0.00;0.00;;;;;;;;5048338;29;8833;-69
2023/04/10 09:55:48;;;;;;;;;0.00;0.00;;;;;;;;5048999;29;8981;-69
2023/04/10 09:58:20;;;;;;;;;0.00;0.00;;;;;;;;5048168;29;8825;-69
2023/04/10 10:00:51;;;;;;;;;2.20;2.20;;;;;;;;5048306;29;8842;-70
2023/04/10 10:03:24;;;;;;;;;0.60;0.60;;;;;;;;5047959;29;8810;-69
2023/04/10 10:05:55;;;;;;;;;0.00;0.00;;;;;;;;5032821;29;8814;-70
2023/04/10 10:08:27;;;;;;;;;0.00;0.00;;;;;;;;5032833;29;8817;-70
2023/04/10 10:10:59;;;;;;;;;4.20;4.20;;;;;;;;5034923;29;8806;-69
2023/04/10 10:13:55;;;;;;;;;0.40;0.40;;;;;;;;5048258;29;8945;-69
2023/04/10 10:16:47;;;;;;;;;0.00;0.00;;;;;;;;5045932;29;8861;-70
2023/04/10 10:19:23;;;;;;;;;1.00;1.00;;;;;;;;5055956;29;8884;-70
2023/04/10 10:21:55;;;;;;;;;0.50;0.50;;;;;;;;5047981;29;8836;-70
2023/04/10 10:24:26;;;;;;;;;0.75;0.75;;;;;;;;5048334;29;8968;-70
2023/04/10 10:26:58;;;;;;;;;2.00;2.00;;;;;;;;5048045;29;8825;-70
2023/04/10 10:29:31;;;;;;;;;0.00;0.00;;;;;;;;5047909;29;8826;-71
2023/04/10 10:32:03;;;;;;;;;1.00;1.00;;;;;;;;5048042;29;8833;-70
2023/04/10 10:34:34;;;;;;;;;0.00;0.00;;;;;;;;5047219;29;8838;-71
2023/04/10 10:37:05;;;;;;;;;1.00;1.00;;;;;;;;5064785;29;8810;-70
2023/04/10 10:39:48;;;;;;;;;0.00;0.00;;;;;;;;5048193;29;9582;-70
2023/04/10 10:42:35;;;;;;;;;0.00;0.00;;;;;;;;5032499;29;8916;-70
2023/04/10 10:45:09;;;;;;;;;1.00;1.00;;;;;;;;5047951;29;8833;-70
2023/04/10 10:47:43;;;;;;;;;3.40;3.20;;;;;;;;5048094;29;8833;-70
2023/04/10 10:50:14;;;;;;;;;0.00;0.00;;;;;;;;5047901;29;8825;-70
2023/04/10 10:52:51;;;;;;;;;0.40;0.40;;;;;;;;5047979;29;8876;-76
2023/04/10 10:55:34;;;;;;;;;3.60;2.80;;;;;;;;5032575;29;8850;-77
2023/04/10 10:58:06;;;;;;;;;4.60;4.60;;;;;;;;5032244;29;8904;-76
2023/04/10 11:00:49;;;;;;;;;1.60;1.60;;;;;;;;5018711;29;8889;-77
2023/04/10 11:03:21;;;;;;;;;2.00;2.00;;;;;;;;5020789;29;8814;-77
2023/04/10 11:06:12;;;;;;;;;0.80;0.80;;;;;;;;5038897;29;8829;-77
2023/04/10 11:08:47;;;;;;;;;0.80;0.80;;;;;;;;5022730;29;8837;-76
2023/04/10 11:11:18;;;;;;;;;0.20;0.20;;;;;;;;5030694;29;8850;-76
2023/04/10 11:13:56;;;;;;;;;1.20;1.20;;;;;;;;5022552;29;8794;-77
2023/04/10 11:16:31;;;;;;;;;0.40;0.40;;;;;;;;5035792;29;8881;-76
2023/04/10 11:19:12;;;;;;;;;2.00;2.00;;;;;;;;5035897;29;8865;-77
2023/04/10 11:22:01;;;;;;;;;0.00;0.00;;;;;;;;5016682;29;8832;-76
2023/04/10 11:24:50;;;;;;;;;0.00;0.00;;;;;;;;5051329;29;9596;-76
2023/04/10 11:27:39;;;;;;;;;1.00;1.00;;;;;;;;5035022;29;8837;-77
2023/04/10 11:30:26;;;;;;;;;1.20;1.00;;;;;;;;5020447;29;8885;-77
2023/04/10 11:32:59;;;;;;;;;6.20;6.20;;;;;;;;5035662;29;8829;-77
2023/04/10 11:35:31;;;;;;;;;1.00;1.00;;;;;;;;5020285;29;9562;-77
2023/04/10 11:38:28;;;;;;;;;7.60;7.60;;;;;;;;5028602;29;8845;-77
2023/04/10 11:41:02;;;;;;;;;1.00;1.00;;;;;;;;5014211;29;8823;-77
2023/04/10 11:43:34;;;;;;;;;0.00;0.00;;;;;;;;5035305;29;8830;-77
2023/04/10 11:46:06;;;;;;;;;1.00;1.00;;;;;;;;5020130;29;8820;-76
2023/04/10 11:48:37;;;;;;;;;0.00;0.00;;;;;;;;5035058;29;8861;-76
2023/04/10 11:51:10;;;;;;;;;9.00;9.00;;;;;;;;5019894;29;8955;-77
2023/04/10 11:53:41;;;;;;;;;0.60;0.60;;;;;;;;5035313;29;8822;-76
2023/04/10 11:56:17;;;;;;;;;0.00;0.00;;;;;;;;5035037;29;8822;-77
2023/04/10 11:58:49;;;;;;;;;0.60;0.60;;;;;;;;5019356;29;8971;-77
2023/04/10 12:01:21;;;;;;;;;5.80;5.80;;;;;;;;5019633;29;8810;-77
2023/04/10 12:03:52;;;;;;;;;0.00;0.00;;;;;;;;5016070;29;8800;-76
2023/04/10 12:06:52;;;;;;;;;8.80;8.80;;;;;;;;5037254;29;8814;-78
2023/04/10 12:09:23;;;;;;;;;1.60;1.60;;;;;;;;5019918;29;8798;-77
2023/04/10 12:11:58;;;;;;;;;1.40;1.00;;;;;;;;5018587;29;8770;-70
2023/04/10 12:14:34;;;;;;;;;0.00;0.00;;;;;;;;5034845;29;8778;-71
2023/04/10 12:17:07;;;;;;;;;0.20;0.00;;;;;;;;5035002;29;8833;-70
2023/04/10 12:19:39;;;;;;;;;0.00;0.00;;;;;;;;5034747;29;9560;-71
2023/04/10 12:22:11;;;;;;;;;1.40;1.40;;;;;;;;5033150;29;8888;-70
2023/04/10 12:24:49;;;;;;;;;0.00;0.00;;;;;;;;5050081;29;9583;-70
2023/04/10 12:27:25;;;;;;;;;1.00;1.00;;;;;;;;5034857;29;9546;-70
2023/04/10 12:29:57;;;;;;;;;0.00;0.00;;;;;;;;5049685;29;8809;-70
2023/04/10 12:32:28;;;;;;;;;1.40;1.40;;;;;;;;5049174;29;8822;-70
2023/04/10 12:35:02;;;;;;;;;0.00;0.00;;;;;;;;5049964;29;9564;-69
2023/04/10 12:37:50;;;;;;;;;0.00;0.00;;;;;;;;5049912;29;8892;-69
2023/04/10 12:40:20;;;;;;;;;0.60;0.60;;;;;;;;5034618;29;8851;-68
2023/04/10 12:43:10;;;;;;;;;5.00;4.60;;;;;;;;5036523;29;8808;-68
2023/04/10 12:46:00;;;;;;;;;7.20;6.60;;;;;;;;5049584;29;8830;-69
2023/04/10 12:48:31;;;;;;;;;0.00;0.00;;;;;;;;5049466;29;8840;-69
2023/04/10 12:51:03;;;;;;;;;0.00;0.00;;;;;;;;5065999;29;8960;-70
2023/04/10 12:53:41;;;;;;;;;0.00;0.00;;;;;;;;5048772;29;9522;-69
2023/04/10 12:56:13;;;;;;;;;0.80;0.80;;;;;;;;5049379;29;8940;-68
2023/04/10 12:58:44;;;;;;;;;0.00;0.00;;;;;;;;5049408;29;8838;-68
2023/04/10 13:01:15;;;;;;;;;0.00;0.00;;;;;;;;5049570;29;8790;-69
2023/04/10 13:03:47;;;;;;;;;0.00;0.00;;;;;;;;5052233;29;8889;-69
2023/04/10 13:06:18;;;;;;;;;0.60;0.60;;;;;;;;5055150;29;8956;-69
2023/04/10 13:08:51;;;;;;;;;0.00;0.00;;;;;;;;5066044;29;8810;-68
2023/04/10 13:11:22;;;;;;;;;0.00;0.00;;;;;;;;5048811;29;8798;-69
2023/04/10 13:14:11;;;;;;;;;1.80;1.80;;;;;;;;5051500;29;8801;-69
2023/04/10 13:16:42;;;;;;;;;0.20;0.20;;;;;;;;5033289;29;8865;-69
2023/04/10 13:19:13;;;;;;;;;0.00;0.00;;;;;;;;5049415;29;8789;-68
2023/04/10 13:21:44;;;;;;;;;0.00;0.00;;;;;;;;5065668;29;10881;-68
2023/04/10 13:24:35;;;;;;;;;0.80;0.80;;;;;;;;5048484;29;12176;-68
2023/04/10 13:27:08;;;;;;;;;0.00;0.00;;;;;;;;5049208;29;8932;-68
2023/04/10 13:29:40;;;;;;;;;0.00;0.00;;;;;;;;5065746;29;8771;-68
2023/04/10 13:32:12;;;;;;;;;2.00;2.00;;;;;;;;5048437;29;8885;-67
2023/04/10 13:34:43;;;;;;;;;7.60;7.60;;;;;;;;5048386;29;8818;-68
2023/04/10 13:37:14;;;;;;;;;0.00;0.00;;;;;;;;5064997;29;8802;-68
2023/04/10 13:39:44;;;;;;;;;0.60;0.60;;;;;;;;5065279;29;8805;-68
2023/04/10 13:42:15;;;;;;;;;0.00;0.00;;;;;;;;5033344;29;8797;-68
2023/04/10 13:44:47;;;;;;;;;9.00;9.00;;;;;;;;5048569;29;9442;-69
2023/04/10 13:47:18;;;;;;;;;6.20;6.20;;;;;;;;5048599;29;8786;-69
2023/04/10 13:49:49;;;;;;;;;0.00;0.00;;;;;;;;5048736;29;8793;-66
2023/04/10 13:52:20;;;;;;;;;4.00;4.00;;;;;;;;5065544;29;8782;-69
2023/04/10 13:54:53;;;;;;;;;3.60;3.60;;;;;;;;5064766;29;8825;-69
2023/04/10 13:57:24;;;;;;;;;3.80;3.80;;;;;;;;5033197;29;8814;-68
2023/04/10 13:59:55;;;;;;;;;7.60;7.60;;;;;;;;5032951;29;8786;-69
2023/04/10 14:02:26;;;;;;;;;3.80;3.80;;;;;;;;5065071;29;8832;-69
2023/04/10 14:04:58;;;;;;;;;2.00;2.00;;;;;;;;5077580;29;8851;-69
2023/04/10 14:07:29;;;;;;;;;1.00;1.00;;;;;;;;5052696;29;8792;-70
2023/04/10 14:10:00;;;;;;;;;0.50;0.50;;;;;;;;5067948;29;8958;-71
2023/04/10 14:12:50;;;;;;;;;0.00;0.00;;;;;;;;5068241;29;12213;-67
2023/04/10 14:15:21;;;;;;;;;3.40;3.00;;;;;;;;5083346;29;8838;-71
2023/04/10 14:17:52;;;;;;;;;3.80;3.80;;;;;;;;5048172;29;8818;-70
2023/04/10 14:20:23;;;;;;;;;15.25;15.25;;;;;;;;5048307;29;8832;-70
2023/04/10 14:22:54;;;;;;;;;1.60;1.60;;;;;;;;5048129;29;8825;-69
2023/04/10 14:25:25;;;;;;;;;61.00;51.00;;;;;;;;5033340;29;8802;-69
2023/04/10 14:28:17;;;;;;;;;85.20;74.00;;;;;;;;5042819;29;11556;-69
2023/04/10 14:30:48;;;;;;;;;9.60;9.60;;;;;;;;5044156;29;8953;-68
2023/04/10 14:33:19;;;;;;;;;6.40;6.40;;;;;;;;5024237;29;8848;-67
2023/04/10 14:35:51;;;;;;;;;10.20;10.20;;;;;;;;5062458;29;8814;-68
2023/04/10 14:38:41;;;;;;;;;12.80;12.80;;;;;;;;5051107;29;8828;-67
2023/04/10 14:41:12;;;;;;;;;10.50;10.50;;;;;;;;5051427;29;8828;-67
2023/04/10 14:43:43;;;;;;;;;5.50;5.50;;;;;;;;5065832;29;8858;-68
2023/04/10 14:46:14;;;;;;;;;6.40;6.00;;;;;;;;5047299;29;10319;-68
2023/04/10 14:48:45;;;;;;;;;5.50;5.50;;;;;;;;5045711;29;8969;-68
2023/04/10 14:51:16;;;;;;;;;6.20;6.20;;;;;;;;5045980;29;8938;-69
2023/04/10 14:53:47;;;;;;;;;11.80;11.80;;;;;;;;5029182;29;8804;-68
2023/04/10 14:56:18;;;;;;;;;8.25;7.25;;;;;;;;5064044;29;8834;-69
2023/04/10 14:58:49;;;;;;;;;3.50;3.25;;;;;;;;5065048;29;8813;-69
2023/04/10 15:01:20;;;;;;;;;5.33;5.33;;;;;;;;5033239;29;8821;-68
2023/04/10 15:03:52;;;;;;;;;27.00;26.20;;;;;;;;5048247;29;11486;-68
2023/04/10 15:06:23;;;;;;;;;10.00;10.00;;;;;;;;5048394;29;8822;-68
2023/04/10 15:08:55;;;;;;;;;7.60;7.40;;;;;;;;5063910;29;8852;-69
2023/04/10 15:11:26;;;;;;;;;22.80;22.00;;;;;;;;5065352;29;8817;-69
2023/04/10 15:13:58;;;;;;;;;5.50;5.25;;;;;;;;5033236;29;9641;-69
2023/04/10 15:16:29;;;;;;;;;9.80;8.60;;;;;;;;5064620;29;8841;-68
2023/04/10 15:19:00;;;;;;;;;19.75;19.00;;;;;;;;5064694;29;9550;-69
2023/04/10 15:21:31;;;;;;;;;13.20;12.60;;;;;;;;5048041;29;11527;-69
2023/04/10 15:24:02;;;;;;;;;11.75;11.75;;;;;;;;5064976;29;8834;-68
2023/04/10 15:26:33;;;;;;;;;26.00;25.20;;;;;;;;5032443;29;11528;-68
2023/04/10 15:29:05;;;;;;;;;44.40;39.20;;;;;;;;5048051;29;9627;-68
2023/04/10 15:31:36;;;;;;;;;31.80;30.60;;;;;;;;5046275;29;8842;-69
2023/04/10 15:34:07;;;;;;;;;36.25;33.50;;;;;;;;5062339;29;8817;-68
2023/04/10 15:36:57;;;;;;;;;26.80;26.80;;;;;;;;5050355;29;9636;-68
2023/04/10 15:39:29;;;;;;;;;43.60;35.80;;;;;;;;5068232;29;8830;-68
2023/04/10 15:42:03;;;;;;;;;22.80;21.80;;;;;;;;5051026;29;8786;-69
2023/04/10 15:44:52;;;;;;;;;27.00;25.40;;;;;;;;5068191;29;8851;-69
2023/04/10 15:47:23;;;;;;;;;20.20;19.80;;;;;;;;5050770;29;8785;-68
2023/04/10 15:49:57;;;;;;;;;29.80;28.40;;;;;;;;5050349;29;8802;-68